Ellis Grove, Illinois
Current Conditions -  °F | °C
As of 9:35 AM on Thursday 23 Oct 2014 (Local Time) from KSAR Reporting Station
Clear Clear  
Wind Chill: 43°   Ceiling: Unl
Heat Index: 46°   Visibility: 10mi
Dew Point: 43°   Wind: 5mph
Humidity: 92%   Direction: 140°SE
Pressure: 30.24"   Gusts: NA
Location:  38.01°N, 89.91°W
Report Text: KSAR 231435Z AUTO 14004KT 10SM CLR 08/06 A3024 RMK AO2 T00750062
Loading
Personal Weather Stations






























Interactive Weather Map
Tropical Storm Tracking
New forecast layout! Learn more

10-Day Weather Forecast

Advertisements
Track Severe Weather on mobile